< < Back
Terminal Aerodrome Forecast


Current Version              Previous Versions:   1  2  3  4  5  6  7  8  9  

Terminal Aerodrome Forecast

440
FTUS44 KMOB 301138
TAFPNS
TAF
KPNS 301138Z 3012/0112 13009KT P6SM OVC006
     FM301500 15015KT P6SM BKN025
      TEMPO 3020/3024 4SM TSRA BKN015CB
     FM010200 14006KT P6SM FEW030 BKN070
     FM010600 17004KT 3SM BR OVC007=

Latest METAR

557
SAUS70 KWBC 010200 RRQ
MTRPNS
METAR KPNS 010153Z 14005KT 10SM SCT017 BKN025 24/22 A2996 RMK AO2 SLP146
T02440217


USA.gov is the U.S. government's official web portal to all federal, state and local government web resources and services.